Time;durP1;ratioP1;P1;durP2;ratioP2;P2;SDS_P1;SDS_P2;PMS_P1;PMS_P2;Temp;Humidity;BMP_temperature;BMP_pressure;BME280_temperature;BME280_humidity;BME280_pressure;Samples;Min_cycle;Max_cycle;Signal;HPM_P1;HPM_P2
2021/04/11 00:00:18;;;;;;;5.38;3.35;;;;;;;4.13;100.00;100914.06;10500463;28;20040;-77
2021/04/11 00:05:22;;;;;;;5.50;3.47;;;;;;;4.12;100.00;100893.78;10505738;28;20020;-77
2021/04/11 00:10:26;;;;;;;5.05;3.40;;;;;;;4.12;100.00;100912.50;10504710;28;20084;-77
2021/04/11 00:15:27;;;;;;;5.18;3.75;;;;;;;4.36;100.00;100964.78;10506884;28;20048;-76
2021/04/11 00:20:27;;;;;;;3.65;3.05;;;;;;;4.06;100.00;100905.72;10506552;28;20435;-77
2021/04/11 00:25:34;;;;;;;3.78;3.08;;;;;;;3.89;100.00;100892.34;10512061;28;20132;-75
2021/04/11 00:30:35;;;;;;;4.20;3.00;;;;;;;4.24;100.00;100950.13;10498096;28;20048;-75
2021/04/11 00:35:35;;;;;;;3.97;2.92;;;;;;;4.33;100.00;100960.06;10512359;28;20388;-76
2021/04/11 00:40:37;;;;;;;3.70;3.22;;;;;;;3.92;100.00;100891.72;10506046;28;20739;-75
2021/04/11 00:45:47;;;;;;;7.03;5.55;;;;;;;4.20;100.00;100964.44;10485809;28;20028;-75
2021/04/11 00:50:56;;;;;;;7.40;6.05;;;;;;;4.12;100.00;100955.31;10507775;28;20039;-77
2021/04/11 00:55:57;;;;;;;10.23;6.32;;;;;;;3.79;100.00;100888.84;10497366;28;20032;-76
2021/04/11 01:00:57;;;;;;;6.00;5.18;;;;;;;3.88;100.00;100901.44;10494483;28;20024;-76
2021/04/11 01:05:58;;;;;;;6.50;5.43;;;;;;;4.07;100.00;100928.72;10515904;28;20137;-77
2021/04/11 01:11:16;;;;;;;6.38;5.03;;;;;;;4.03;100.00;100938.47;10487259;28;20039;-77
2021/04/11 01:16:17;;;;;;;7.80;5.50;;;;;;;3.80;100.00;100901.13;10493486;28;20154;-76
2021/04/11 01:21:32;;;;;;;6.93;5.47;;;;;;;3.70;100.00;100890.72;10500168;28;20039;-77
2021/04/11 01:26:33;;;;;;;6.95;5.03;;;;;;;4.09;100.00;100945.25;10509438;28;20127;-77
2021/04/11 01:31:34;;;;;;;6.88;4.88;;;;;;;3.97;100.00;100915.63;10521106;28;20455;-77
2021/04/11 01:36:37;;;;;;;5.50;4.63;;;;;;;3.81;100.00;100881.31;10490548;28;20093;-77
2021/04/11 01:41:43;;;;;;;8.13;5.45;;;;;;;3.70;100.00;100874.69;10502199;28;20396;-76
2021/04/11 01:46:44;;;;;;;6.88;4.82;;;;;;;4.11;100.00;100932.31;10479312;28;20051;-76
2021/04/11 01:51:47;;;;;;;6.20;4.90;;;;;;;4.09;100.00;100936.41;10512099;28;20423;-76
2021/04/11 01:56:48;;;;;;;7.43;4.88;;;;;;;4.18;100.00;100954.06;10488840;28;20422;-76
2021/04/11 02:01:49;;;;;;;6.38;4.85;;;;;;;3.76;100.00;100905.53;10507318;28;20084;-76
2021/04/11 02:06:52;;;;;;;8.57;3.97;;;;;;;4.00;100.00;100947.13;10495678;28;20036;-77
2021/04/11 02:11:53;;;;;;;5.65;3.50;;;;;;;4.12;100.00;100987.41;10492825;28;20031;-77
2021/04/11 02:16:58;;;;;;;4.65;3.38;;;;;;;3.75;100.00;100919.97;10494843;28;20070;-76
2021/04/11 02:22:03;;;;;;;6.22;3.85;;;;;;;4.27;100.00;100988.06;10495317;28;20034;-77
2021/04/11 02:27:04;;;;;;;4.57;3.42;;;;;;;4.24;100.00;100984.91;10513246;28;20548;-77
2021/04/11 02:32:09;;;;;;;6.17;3.60;;;;;;;4.06;100.00;100951.19;10525343;28;20529;-77
2021/04/11 02:37:21;;;;;;;4.30;3.55;;;;;;;4.06;100.00;100972.59;10544468;28;20048;-76
2021/04/11 02:42:28;;;;;;;4.82;3.67;;;;;;;3.92;100.00;100953.22;10519391;28;20027;-77
2021/04/11 02:47:28;;;;;;;4.07;3.17;;;;;;;3.94;100.00;100954.47;10514207;28;20101;-77
2021/04/11 02:52:33;;;;;;;4.20;3.20;;;;;;;3.90;100.00;100968.78;10539090;28;20833;-75
2021/04/11 02:57:34;;;;;;;5.65;3.35;;;;;;;3.52;100.00;100931.84;10531055;28;20064;-75
2021/04/11 03:02:34;;;;;;;6.75;4.95;;;;;;;4.07;100.00;101000.94;10527926;28;20117;-76
2021/04/11 03:07:42;;;;;;;9.02;7.07;;;;;;;3.71;100.00;100977.84;10540499;28;20031;-76
2021/04/11 03:12:43;;;;;;;11.23;6.18;;;;;;;3.79;100.00;100995.81;10520771;28;20039;-75
2021/04/11 03:17:44;;;;;;;8.88;6.05;;;;;;;3.64;100.00;100934.72;10508430;28;21243;-75
2021/04/11 03:22:45;;;;;;;7.47;6.07;;;;;;;3.79;100.00;100979.78;10510489;28;20047;-75
2021/04/11 03:27:48;;;;;;;8.32;5.20;;;;;;;3.53;100.00;100960.19;10548939;28;20051;-75
2021/04/11 03:32:58;;;;;;;8.00;5.68;;;;;;;3.89;100.00;101015.34;10536194;28;20051;-75
2021/04/11 03:38:01;;;;;;;10.85;7.13;;;;;;;3.81;100.00;100984.81;10511939;28;20023;-76
2021/04/11 03:43:24;;;;;;;;;;;;;;;3.90;100.00;101024.94;10533603;28;20032;-76
2021/04/11 03:48:33;;;;;;;8.35;5.72;;;;;;;3.91;100.00;101039.91;10525107;28;19926;-77
2021/04/11 03:54:01;;;;;;;10.70;5.63;;;;;;;3.87;100.00;101038.94;10549711;28;20092;-77
2021/04/11 03:59:03;;;;;;;8.82;5.53;;;;;;;3.96;100.00;101042.44;10515154;28;20484;-76
2021/04/11 04:04:12;;;;;;;7.70;4.93;;;;;;;4.05;100.00;101019.19;10547577;28;20035;-76
2021/04/11 04:09:15;;;;;;;9.02;4.75;;;;;;;3.93;100.00;101016.31;10536420;28;20639;-76
2021/04/11 04:14:29;;;;;;;7.03;3.83;;;;;;;4.10;100.00;101053.03;10556363;28;20032;-75
2021/04/11 04:19:47;;;;;;;5.55;3.42;;;;;;;4.06;100.00;101063.56;10549994;28;20369;-76
2021/04/11 04:24:49;;;;;;;5.65;4.53;;;;;;;3.96;100.00;101042.44;10558863;27;20096;-76
2021/04/11 04:29:59;;;;;;;10.60;4.72;;;;;;;3.94;100.00;101066.03;10512567;28;20056;-76
2021/04/11 04:35:00;;;;;;;6.70;4.60;;;;;;;3.93;100.00;101069.81;10522221;28;20059;-76
2021/04/11 04:40:04;;;;;;;10.20;4.95;;;;;;;3.92;100.00;101070.91;10524241;28;20507;-76
2021/04/11 04:45:07;;;;;;;9.45;5.55;;;;;;;3.95;100.00;101097.03;10522903;28;20768;-76
2021/04/11 04:50:14;;;;;;;7.35;4.97;;;;;;;3.28;100.00;100975.75;10490803;28;20041;-76
2021/04/11 04:55:20;;;;;;;9.48;4.90;;;;;;;3.77;100.00;101040.78;10513926;28;20090;-76
2021/04/11 05:00:22;;;;;;;7.38;2.72;;;;;;;3.98;100.00;101099.09;10498881;28;20109;-76
2021/04/11 05:05:24;;;;;;;8.13;2.60;;;;;;;3.80;100.00;101082.94;10498159;28;20397;-76
2021/04/11 05:10:32;;;;;;;4.55;1.60;;;;;;;3.79;100.00;101086.72;10467064;28;20400;-76
2021/04/11 05:15:37;;;;;;;8.43;1.77;;;;;;;3.68;100.00;101066.69;10511786;28;20024;-76
2021/04/11 05:20:41;;;;;;;6.97;1.60;;;;;;;3.97;100.00;101129.59;10494055;28;20182;-77
2021/04/11 05:25:49;;;;;;;5.97;1.80;;;;;;;3.88;100.00;101110.03;10498808;28;20127;-77
2021/04/11 05:30:58;;;;;;;7.35;1.65;;;;;;;3.99;100.00;101140.78;10527126;28;20040;-76
2021/04/11 05:36:20;;;;;;;7.97;1.67;;;;;;;4.11;100.00;101143.69;10533963;28;20460;-78
2021/04/11 05:41:49;;;;;;;4.68;1.88;;;;;;;3.79;100.00;101096.66;10552406;28;20464;-76
2021/04/11 05:47:11;;;;;;;8.07;1.90;;;;;;;3.89;100.00;101096.38;10551987;28;20428;-77
2021/04/11 05:52:17;;;;;;;11.80;1.75;;;;;;;4.14;100.00;101129.69;10538182;28;20035;-77
2021/04/11 05:57:31;;;;;;;6.78;1.35;;;;;;;4.44;100.00;101159.41;10535018;28;20032;-78
2021/04/11 06:02:44;;;;;;;9.00;1.77;;;;;;;3.87;100.00;101073.72;10540195;28;20038;-77
2021/04/11 06:07:52;;;;;;;3.60;1.00;;;;;;;4.60;100.00;101163.25;10540181;28;20652;-79
2021/04/11 06:13:07;;;;;;;9.88;1.33;;;;;;;4.68;100.00;101174.28;10542559;28;20043;-77
2021/04/11 06:18:08;;;;;;;10.10;2.30;;;;;;;4.63;100.00;101184.06;10552398;27;20329;-77
2021/04/11 06:23:28;;;;;;;6.00;1.33;;;;;;;4.64;100.00;101190.97;10552656;28;20039;-77
2021/04/11 06:28:29;;;;;;;8.75;1.58;;;;;;;4.43;100.00;101141.78;10535556;28;20051;-75
2021/04/11 06:33:32;;;;;;;6.38;1.23;;;;;;;4.26;100.00;101147.03;10552449;28;20463;-77
2021/04/11 06:39:25;;;;;;;6.75;1.40;;;;;;;4.62;100.00;101193.19;10517127;28;20035;-78
2021/04/11 06:44:38;;;;;;;5.70;1.25;;;;;;;4.30;100.00;101139.97;10507517;28;20055;-76
2021/04/11 06:49:49;;;;;;;10.23;1.70;;;;;;;4.30;100.00;101148.00;10551652;27;20051;-76
2021/04/11 06:54:55;;;;;;;8.05;1.40;;;;;;;4.72;100.00;101212.75;10552272;28;20184;-77
2021/04/11 07:00:07;;;;;;;6.40;1.38;;;;;;;4.85;100.00;101206.50;10545534;28;20050;-76
2021/04/11 07:05:17;;;;;;;10.13;1.13;;;;;;;4.83;98.92;101230.13;10530195;28;20035;-77
2021/04/11 07:10:40;;;;;;;9.38;1.20;;;;;;;4.68;98.53;101182.31;10543140;28;20067;-78
2021/04/11 07:16:11;;;;;;;11.07;1.58;;;;;;;5.33;96.00;101234.31;10531311;28;20034;-78
2021/04/11 07:21:37;;;;;;;8.50;1.50;;;;;;;5.64;95.32;101247.59;10543166;28;20472;-77
2021/04/11 07:26:49;;;;;;;7.38;1.40;;;;;;;5.53;92.57;101187.31;10516789;28;20031;-77
2021/04/11 07:31:55;;;;;;;5.93;1.40;;;;;;;6.21;90.45;101260.84;10503779;28;20036;-77
2021/04/11 07:37:10;;;;;;;5.45;1.02;;;;;;;6.54;89.78;101269.13;10511069;28;20284;-76
2021/04/11 07:42:34;;;;;;;7.57;1.40;;;;;;;6.99;88.26;101262.47;10511498;28;20032;-78
2021/04/11 07:48:05;;;;;;;11.27;2.13;;;;;;;7.37;83.15;101269.69;10487801;28;20060;-77
2021/04/11 07:53:27;;;;;;;6.97;1.40;;;;;;;7.75;80.79;101263.41;10502462;28;20071;-78
2021/04/11 07:59:06;;;;;;;7.60;1.15;;;;;;;8.20;79.23;101273.44;10513552;28;20115;-78
2021/04/11 08:04:28;;;;;;;6.22;1.10;;;;;;;8.57;76.54;101241.25;10499612;28;20056;-78
2021/04/11 08:09:31;;;;;;;6.50;1.03;;;;;;;9.96;73.61;101298.63;10481756;28;20089;-79
2021/04/11 08:15:03;;;;;;;8.50;1.35;;;;;;;10.25;70.64;101288.56;10492360;28;20039;-77
2021/04/11 08:20:25;;;;;;;3.72;1.10;;;;;;;10.13;68.22;101298.31;10509511;28;20025;-78
2021/04/11 08:25:31;;;;;;;4.18;1.00;;;;;;;9.23;70.81;101283.38;10491304;28;20036;-77
2021/04/11 08:30:50;;;;;;;7.25;1.20;;;;;;;8.34;74.96;101308.97;10512334;28;20079;-75
2021/04/11 08:36:04;;;;;;;8.88;1.17;;;;;;;7.56;75.46;101313.06;10519188;28;20120;-78
2021/04/11 08:41:26;;;;;;;5.00;0.82;;;;;;;6.91;77.35;101335.88;10504242;28;20388;-79
2021/04/11 08:47:04;;;;;;;4.20;1.10;;;;;;;6.73;79.50;101341.31;10511231;28;20489;-78
2021/04/11 08:52:29;;;;;;;2.70;0.75;;;;;;;6.60;76.52;101344.97;10516991;28;20126;-78
2021/04/11 08:57:56;;;;;;;5.45;1.02;;;;;;;6.60;76.91;101342.28;10510623;28;20924;-78
2021/04/11 09:03:29;;;;;;;2.35;0.90;;;;;;;6.34;76.67;101308.19;10493761;28;20163;-78
2021/04/11 09:08:30;;;;;;;7.25;1.92;;;;;;;6.72;76.96;101363.09;10516837;28;20032;-78
2021/04/11 09:13:46;;;;;;;4.80;0.98;;;;;;;6.21;77.58;101260.84;10515774;28;20028;-76
2021/04/11 09:19:10;;;;;;;5.78;0.85;;;;;;;7.42;75.72;101328.69;10504356;28;20054;-76
2021/04/11 09:24:12;;;;;;;4.25;0.90;;;;;;;7.86;73.20;101368.78;10507039;28;20041;-76
2021/04/11 09:29:35;;;;;;;8.23;1.17;;;;;;;7.90;72.65;101373.19;10524031;28;20040;-76
2021/04/11 09:35:13;;;;;;;2.85;0.73;;;;;;;7.77;70.18;101371.53;10549831;27;20031;-76
2021/04/11 09:40:32;;;;;;;5.78;1.02;;;;;;;7.39;73.57;101388.50;10555765;28;20031;-77
2021/04/11 09:45:52;;;;;;;2.70;0.80;;;;;;;7.27;70.83;101353.44;10533442;28;20425;-75
2021/04/11 09:50:56;;;;;;;4.90;0.77;;;;;;;7.35;69.60;101387.56;10540587;28;20042;-76
2021/04/11 09:56:15;;;;;;;4.65;0.77;;;;;;;7.29;70.95;101394.22;10542416;28;20043;-77
2021/04/11 10:01:34;;;;;;;4.10;1.08;;;;;;;8.03;69.51;101396.34;10537383;28;20035;-76
2021/04/11 10:06:59;;;;;;;4.60;0.90;;;;;;;8.79;66.65;101405.22;10535207;28;20038;-77
2021/04/11 10:12:00;;;;;;;4.90;0.98;;;;;;;9.03;63.18;101409.09;10532070;28;20028;-78
2021/04/11 10:17:34;;;;;;;7.07;1.50;;;;;;;8.80;67.55;101412.22;10543503;28;20349;-76
2021/04/11 10:22:42;;;;;;;1.90;0.77;;;;;;;9.13;61.45;101397.91;10543904;28;20024;-77
2021/04/11 10:28:18;;;;;;;5.90;0.73;;;;;;;9.98;58.66;101420.59;10527007;28;20044;-81
2021/04/11 10:33:37;;;;;;;4.25;0.90;;;;;;;10.48;56.86;101389.63;10509452;28;20039;-78
2021/04/11 10:38:48;;;;;;;6.18;1.15;;;;;;;10.19;60.99;101419.66;10514236;28;20047;-77
2021/04/11 10:44:05;;;;;;;8.30;2.03;;;;;;;10.94;59.30;101433.34;10522254;28;20067;-77
2021/04/11 10:49:26;;;;;;;5.38;1.58;;;;;;;10.26;59.74;101446.88;10538702;28;20460;-76
2021/04/11 10:55:04;;;;;;;11.88;2.72;;;;;;;9.59;62.59;101446.38;10532034;28;20035;-76
2021/04/11 11:00:13;;;;;;;8.20;2.30;;;;;;;9.24;64.36;101447.59;10541941;28;20920;-78
2021/04/11 11:05:39;;;;;;;7.05;1.40;;;;;;;9.53;64.86;101422.31;10522980;28;20035;-79
2021/04/11 11:10:45;;;;;;;6.70;1.40;;;;;;;10.20;61.69;101469.84;10517594;28;20126;-80
2021/04/11 11:16:22;;;;;;;7.10;1.70;;;;;;;9.45;63.79;101474.50;10525072;28;20785;-79
2021/04/11 11:21:48;;;;;;;9.48;1.42;;;;;;;9.06;64.27;101467.78;10540566;28;20030;-78
2021/04/11 11:27:21;;;;;;;6.47;2.25;;;;;;;9.79;62.34;101450.09;10541065;28;20526;-81
2021/04/11 11:32:51;;;;;;;3.72;1.10;;;;;;;10.61;59.58;101473.38;10501014;28;20063;-78
2021/04/11 11:38:11;;;;;;;6.28;1.10;;;;;;;9.82;58.51;101473.72;10507657;28;20093;-78
2021/04/11 11:43:18;;;;;;;5.30;0.90;;;;;;;9.87;58.20;101441.09;10536570;28;20040;-86
2021/04/11 11:48:21;;;;;;;2.90;0.88;;;;;;;10.77;53.70;101487.72;10531026;28;20115;-78
2021/04/11 11:53:26;;;;;;;3.45;0.93;;;;;;;10.79;52.32;101458.41;10507386;28;20036;-77
2021/04/11 11:58:41;;;;;;;5.18;0.80;;;;;;;11.15;51.12;101475.63;10480315;28;20121;-76
2021/04/11 12:03:41;;;;;;;2.67;0.75;;;;;;;11.32;50.76;101518.56;10519250;28;20153;-77
2021/04/11 12:09:01;;;;;;;5.13;0.95;;;;;;;10.98;52.12;101433.41;10495796;28;20484;-75
2021/04/11 12:14:16;;;;;;;4.90;0.70;;;;;;;11.59;51.28;101494.47;10513031;28;20059;-77
2021/04/11 12:19:19;;;;;;;3.15;0.82;;;;;;;11.41;49.82;101478.59;10540096;28;20563;-75
2021/04/11 12:24:22;;;;;;;9.43;1.27;;;;;;;11.86;51.89;101525.31;10520924;28;20111;-80
2021/04/11 12:29:24;;;;;;;4.45;0.77;;;;;;;11.64;49.87;101486.09;10518959;28;20458;-77
2021/04/11 12:34:43;;;;;;;4.20;1.00;;;;;;;12.18;49.78;101547.78;10518627;28;20800;-77
2021/04/11 12:39:44;;;;;;;4.25;1.20;;;;;;;12.00;50.35;101546.59;10552288;28;20040;-76
2021/04/11 12:45:08;;;;;;;4.28;0.82;;;;;;;11.70;48.34;101528.03;10550573;27;20103;-76
2021/04/11 12:50:28;;;;;;;9.45;1.63;;;;;;;11.62;47.54;101515.47;10535673;28;20032;-77
2021/04/11 12:55:35;;;;;;;3.95;0.70;;;;;;;11.45;48.05;101521.19;10532747;28;20459;-77
2021/04/11 13:00:54;;;;;;;4.13;1.00;;;;;;;11.50;46.53;101491.16;10539772;28;20098;-78
2021/04/11 13:06:18;;;;;;;2.53;0.73;;;;;;;11.88;47.57;101571.06;10537475;28;20042;-77
2021/04/11 13:11:23;;;;;;;5.70;0.70;;;;;;;11.74;45.01;101561.41;10513568;28;20454;-79
2021/04/11 13:16:48;;;;;;;3.28;0.80;;;;;;;12.17;43.03;101586.06;10537239;28;20032;-78
2021/04/11 13:22:00;;;;;;;6.25;0.80;;;;;;;11.59;44.70;101516.16;10504672;28;20044;-79
2021/04/11 13:27:32;;;;;;;3.08;0.80;;;;;;;12.33;42.05;101602.31;10519011;28;20028;-76
2021/04/11 13:33:00;;;;;;;2.78;0.50;;;;;;;12.31;41.19;101605.38;10493805;28;20132;-76
2021/04/11 13:38:04;;;;;;;4.13;0.70;;;;;;;11.55;40.91;101577.56;10502875;28;20143;-82
2021/04/11 13:43:25;;;;;;;3.85;0.85;;;;;;;11.23;42.31;101580.19;10545250;28;20047;-81
2021/04/11 13:48:40;;;;;;;5.28;0.80;;;;;;;11.56;43.05;101608.91;10538472;28;20031;-82
2021/04/11 13:54:11;;;;;;;3.20;0.77;;;;;;;12.18;40.40;101631.81;10523012;27;20719;-77
2021/04/11 13:59:36;;;;;;;5.13;1.00;;;;;;;11.89;41.96;101653.91;10562452;28;20139;-78
2021/04/11 14:04:43;;;;;;;4.90;0.85;;;;;;;11.81;42.12;101626.59;10506246;28;20034;-82
2021/04/11 14:09:47;;;;;;;7.70;1.00;;;;;;;10.71;43.93;101548.59;10536734;28;20023;-79
2021/04/11 14:15:06;;;;;;;3.78;0.90;;;;;;;11.30;45.60;101569.56;10531330;28;20324;-81
2021/04/11 14:20:10;;;;;;;6.68;1.65;;;;;;;12.12;44.90;101646.75;10539965;28;20035;-78
2021/04/11 14:25:34;;;;;;;3.03;0.65;;;;;;;11.67;44.98;101647.91;10532916;27;20084;-79
2021/04/11 14:30:46;;;;;;;4.20;0.88;;;;;;;10.46;47.12;101624.31;10500767;28;20358;-80
2021/04/11 14:36:07;;;;;;;4.88;1.42;;;;;;;9.84;46.99;101674.00;10506609;28;20034;-79
2021/04/11 14:41:10;;;;;;;3.42;1.50;;;;;;;9.86;46.38;101669.06;10483303;28;20028;-80
2021/04/11 14:46:36;;;;;;;4.70;0.90;;;;;;;10.21;48.83;101668.69;10459048;28;20054;-81
2021/04/11 14:51:39;;;;;;;3.55;1.00;;;;;;;10.63;46.91;101644.13;10490894;28;20036;-80
2021/04/11 14:56:55;;;;;;;4.78;1.00;;;;;;;10.77;48.02;101693.25;10469379;22;20080;-79
2021/04/11 15:02:20;;;;;;;3.55;1.10;;;;;;;10.64;49.86;101689.00;10420341;22;20552;-80
2021/04/11 15:07:21;;;;;;;5.93;1.05;;;;;;;10.03;51.50;101655.34;10431491;22;20049;-78
2021/04/11 15:12:29;;;;;;;5.53;1.30;;;;;;;9.78;51.34;101686.13;10385005;28;20667;-78
2021/04/11 15:18:06;;;;;;;4.45;0.95;;;;;;;9.70;53.30;101720.97;10382455;28;21880;-77
2021/04/11 15:23:18;;;;;;;5.68;1.70;;;;;;;9.36;54.13;101729.34;10376964;28;20030;-79
2021/04/11 15:28:27;;;;;;;7.82;1.73;;;;;;;9.26;55.34;101731.31;10397646;28;20043;-78
2021/04/11 15:33:31;;;;;;;5.03;1.20;;;;;;;9.31;54.88;101706.84;10389081;28;20041;-77
2021/04/11 15:38:47;;;;;;;7.28;1.90;;;;;;;9.66;54.67;101695.75;10385112;28;20109;-79
2021/04/11 15:44:09;;;;;;;9.25;1.45;;;;;;;9.89;54.35;101752.09;10387705;28;20398;-78
2021/04/11 15:49:20;;;;;;;3.22;0.95;;;;;;;9.87;53.05;101755.13;10379248;28;20195;-78
2021/04/11 15:54:34;;;;;;;3.38;0.93;;;;;;;9.53;52.56;101746.19;10390746;28;20044;-80
2021/04/11 15:59:56;;;;;;;6.13;1.40;;;;;;;9.29;55.22;101763.06;10388204;28;20049;-79
2021/04/11 16:05:09;;;;;;;4.35;0.98;;;;;;;9.31;54.76;101722.22;10391966;28;20052;-77
2021/04/11 16:10:24;;;;;;;5.30;1.50;;;;;;;9.36;56.62;101761.72;10378334;28;20132;-79
2021/04/11 16:15:58;;;;;;;4.78;1.10;;;;;;;9.72;56.04;101753.81;10388361;28;20842;-79
2021/04/11 16:21:15;;;;;;;5.90;1.20;;;;;;;10.16;54.00;101773.13;10394605;28;20076;-78
2021/04/11 16:26:41;;;;;;;6.65;1.35;;;;;;;10.15;53.10;101787.75;10377231;28;20029;-77
2021/04/11 16:32:10;;;;;;;5.10;0.80;;;;;;;9.72;50.50;101790.84;10391276;28;20071;-77
2021/04/11 16:37:20;;;;;;;3.58;0.88;;;;;;;9.32;49.82;101783.97;10391887;28;20121;-77
2021/04/11 16:42:48;;;;;;;3.13;0.65;;;;;;;9.57;51.28;101816.53;10389343;28;20459;-78
2021/04/11 16:48:12;;;;;;;4.95;1.30;;;;;;;9.09;50.42;101779.97;10390699;28;20116;-77
2021/04/11 16:53:50;;;;;;;9.15;2.35;;;;;;;9.34;48.63;101817.94;10406159;28;20439;-78
2021/04/11 16:59:24;;;;;;;3.00;1.00;;;;;;;9.11;48.92;101820.91;10365056;28;20053;-79
2021/04/11 17:04:47;;;;;;;3.38;1.00;;;;;;;9.00;51.63;101838.56;10390316;28;20068;-77
2021/04/11 17:10:24;;;;;;;4.35;0.85;;;;;;;8.85;51.84;101846.06;10387756;28;20123;-76
2021/04/11 17:15:27;;;;;;;4.97;1.08;;;;;;;8.51;52.62;101813.81;10390306;28;20065;-79
2021/04/11 17:20:36;;;;;;;6.72;0.90;;;;;;;8.51;52.33;101862.31;10386574;28;20029;-80
2021/04/11 17:26:01;;;;;;;4.95;0.60;;;;;;;8.73;51.63;101864.03;10383856;28;20030;-79
2021/04/11 17:31:32;;;;;;;3.80;0.70;;;;;;;8.41;53.59;101864.25;10357633;28;20403;-81
2021/04/11 17:36:51;;;;;;;3.20;0.55;;;;;;;8.29;53.54;101877.53;10375268;28;20049;-81
2021/04/11 17:41:55;;;;;;;2.38;0.65;;;;;;;7.94;52.54;101850.59;10388178;28;20083;-80
2021/04/11 17:47:22;;;;;;;3.80;0.60;;;;;;;7.95;54.85;101895.28;10387447;28;20163;-80
2021/04/11 17:52:38;;;;;;;6.75;1.23;;;;;;;7.61;57.67;101902.16;10389597;28;20405;-80
2021/04/11 17:57:44;;;;;;;3.42;0.68;;;;;;;7.40;60.03;101903.84;10381267;28;20041;-80
2021/04/11 18:03:13;;;;;;;3.58;1.13;;;;;;;7.09;61.96;101880.47;10403369;28;20129;-79
2021/04/11 18:08:18;;;;;;;6.60;1.10;;;;;;;6.77;63.30;101868.94;10379481;28;20053;-80
2021/04/11 18:13:31;;;;;;;3.88;0.77;;;;;;;6.93;64.31;101930.34;10390744;28;20060;-79
2021/04/11 18:18:44;;;;;;;10.13;3.55;;;;;;;6.54;65.21;101897.72;10387405;28;20064;-78
2021/04/11 18:23:52;;;;;;;6.40;1.13;;;;;;;6.59;65.86;101955.91;10393106;28;20045;-82
2021/04/11 18:29:25;;;;;;;5.05;0.55;;;;;;;6.29;65.30;101950.09;10383125;28;20030;-79
2021/04/11 18:34:35;;;;;;;;;;;;;;;6.30;66.74;101978.56;10383369;28;20049;-77
2021/04/11 18:39:54;;;;;;;2.40;0.55;;;;;;;6.12;67.43;101982.19;10390252;28;19917;-78
2021/04/11 18:45:17;;;;;;;3.42;0.63;;;;;;;6.05;69.04;101987.16;10353766;28;20390;-80
2021/04/11 18:50:21;;;;;;;1.48;0.60;;;;;;;5.98;69.83;102002.88;10377278;28;20104;-79
2021/04/11 18:55:25;;;;;;;4.63;1.67;;;;;;;5.81;70.83;101998.88;10389924;28;20078;-79
2021/04/11 19:00:46;;;;;;;4.90;1.10;;;;;;;5.53;71.18;101984.63;10387453;28;20029;-79
2021/04/11 19:05:55;;;;;;;4.30;1.00;;;;;;;5.27;72.46;101973.56;10373239;28;20045;-76
2021/04/11 19:11:33;;;;;;;5.85;1.10;;;;;;;5.53;73.62;102024.06;10390397;28;20045;-80
2021/04/11 19:16:43;;;;;;;4.60;1.38;;;;;;;5.38;75.19;102027.81;10373366;28;20037;-77
2021/04/11 19:22:11;;;;;;;3.30;1.48;;;;;;;5.27;76.07;102037.91;10393171;28;20068;-77
2021/04/11 19:27:27;;;;;;;3.97;0.80;;;;;;;5.12;77.46;102040.84;10372698;28;20117;-84
2021/04/11 19:32:33;;;;;;;6.78;2.90;;;;;;;5.06;78.27;102059.69;10377058;28;20469;-79
2021/04/11 19:37:43;;;;;;;4.13;1.20;;;;;;;4.74;78.69;102035.50;10379801;28;20099;-79
2021/04/11 19:43:08;;;;;;;4.32;1.27;;;;;;;4.90;78.90;102070.91;10385332;28;20100;-80
2021/04/11 19:48:14;;;;;;;12.13;1.77;;;;;;;4.82;79.99;102075.03;10388129;28;20045;-82
2021/04/11 19:53:23;;;;;;;2.75;1.00;;;;;;;4.48;80.51;102049.25;10370114;28;20041;-81
2021/04/11 19:58:39;;;;;;;6.07;1.02;;;;;;;4.71;80.98;102100.38;10385241;28;20069;-79
2021/04/11 20:04:06;;;;;;;3.38;1.20;;;;;;;4.68;81.21;102100.94;10385165;28;20385;-79
2021/04/11 20:09:34;;;;;;;5.35;1.38;;;;;;;4.47;82.00;102074.44;10388465;28;20049;-79
2021/04/11 20:14:44;;;;;;;7.55;1.25;;;;;;;4.56;83.19;102104.84;10384817;28;20470;-81
2021/04/11 20:20:02;;;;;;;8.02;2.67;;;;;;;4.50;84.19;102115.91;10382517;28;20033;-77
2021/04/11 20:25:19;;;;;;;7.18;1.92;;;;;;;4.47;84.43;102111.94;10386510;28;20070;-80
2021/04/11 20:30:40;;;;;;;11.45;2.10;;;;;;;4.38;84.69;102110.97;10403578;28;20478;-81
2021/04/11 20:36:09;;;;;;;7.20;2.70;;;;;;;4.15;85.37;102078.53;10386357;28;20049;-81
2021/04/11 20:41:41;;;;;;;5.40;1.80;;;;;;;3.83;85.05;102038.22;10389112;28;20121;-78
2021/04/11 20:47:05;;;;;;;;;;;;;;;4.29;85.49;102131.41;10399328;28;20049;-83
2021/04/11 20:52:11;;;;;;;5.80;1.70;;;;;;;4.19;85.81;102125.06;10398968;28;19935;-79
2021/04/11 20:57:21;;;;;;;4.45;1.30;;;;;;;3.78;86.05;102077.31;10376253;28;20034;-79
2021/04/11 21:02:40;;;;;;;6.55;1.73;;;;;;;4.13;86.37;102144.94;10385886;28;20037;-78
2021/04/11 21:07:59;;;;;;;5.50;1.33;;;;;;;4.14;86.63;102141.19;10393951;28;20050;-80
2021/04/11 21:13:38;;;;;;;3.08;1.13;;;;;;;4.10;87.06;102150.84;10397447;28;20060;-84
2021/04/11 21:18:57;;;;;;;4.65;1.60;;;;;;;4.12;87.15;102148.69;10383904;28;21203;-80
2021/04/11 21:24:21;;;;;;;5.93;1.17;;;;;;;4.06;86.96;102155.16;10391454;28;20037;-80
2021/04/11 21:29:44;;;;;;;5.90;1.25;;;;;;;4.05;86.68;102153.59;10388328;28;20436;-81
2021/04/11 21:34:47;;;;;;;3.47;1.23;;;;;;;3.95;86.12;102164.38;10392911;28;20036;-78
2021/04/11 21:39:56;;;;;;;4.63;1.05;;;;;;;3.71;86.18;102133.00;10397806;28;20051;-77
2021/04/11 21:45:19;;;;;;;4.40;1.27;;;;;;;3.96;86.26;102165.97;10394932;28;20038;-77
2021/04/11 21:50:26;;;;;;;;;;;;;;;4.07;86.58;102178.19;10402038;28;20422;-77
2021/04/11 21:55:48;;;;;;;3.33;0.80;;;;;;;3.48;86.81;102086.44;10394611;28;19917;-78
2021/04/11 22:01:02;;;;;;;4.07;1.67;;;;;;;4.08;86.31;102195.84;10392792;28;20040;-78
2021/04/11 22:06:19;;;;;;;2.28;0.90;;;;;;;4.04;86.46;102200.16;10392033;28;20056;-78
2021/04/11 22:11:36;;;;;;;4.25;0.85;;;;;;;3.98;86.77;102196.72;10393334;28;20042;-78
2021/04/11 22:16:55;;;;;;;4.68;0.88;;;;;;;3.91;86.58;102203.47;10396612;28;20100;-75
2021/04/11 22:22:26;;;;;;;4.75;1.17;;;;;;;3.75;87.54;102198.25;10413203;28;20025;-76
2021/04/11 22:27:43;;;;;;;6.10;0.80;;;;;;;3.80;87.27;102206.22;10391969;28;20132;-77
2021/04/11 22:32:44;;;;;;;3.60;0.90;;;;;;;3.90;86.86;102225.94;10394542;28;20477;-77
2021/04/11 22:37:50;;;;;;;1.90;0.68;;;;;;;3.91;87.79;102222.22;10391678;28;20028;-76
2021/04/11 22:43:02;;;;;;;3.33;0.80;;;;;;;3.59;88.75;102183.38;10392744;28;20033;-76
2021/04/11 22:48:17;;;;;;;7.00;0.90;;;;;;;3.66;89.59;102205.25;10390086;28;20032;-77
2021/04/11 22:53:24;;;;;;;3.60;0.73;;;;;;;3.75;90.60;102227.66;10390669;28;20114;-77
2021/04/11 22:58:36;;;;;;;4.05;0.63;;;;;;;3.81;90.39;102250.63;10395150;28;20114;-77
2021/04/11 23:03:47;;;;;;;1.50;0.60;;;;;;;3.72;91.27;102246.94;10407920;28;20074;-77
2021/04/11 23:08:48;;;;;;;3.25;0.60;;;;;;;3.70;91.35;102259.78;10394794;28;20041;-80
2021/04/11 23:14:00;;;;;;;2.25;0.75;;;;;;;3.73;90.60;102253.88;10390357;28;20482;-77
2021/04/11 23:19:15;;;;;;;4.10;0.70;;;;;;;3.66;90.46;102248.03;10391579;28;20288;-80
2021/04/11 23:24:34;;;;;;;2.40;0.80;;;;;;;3.85;90.61;102266.13;10407078;28;20079;-78
2021/04/11 23:29:50;;;;;;;2.25;0.50;;;;;;;3.95;89.66;102282.09;10387364;28;20057;-78
2021/04/11 23:35:17;;;;;;;1.25;0.50;;;;;;;3.85;90.07;102287.53;10389842;28;20494;-78
2021/04/11 23:40:20;;;;;;;4.28;0.88;;;;;;;3.77;90.46;102287.03;10389800;28;20951;-78
2021/04/11 23:45:40;;;;;;;3.88;0.70;;;;;;;3.62;90.63;102265.72;10388497;28;20033;-78
2021/04/11 23:50:58;;;;;;;4.85;0.80;;;;;;;3.68;91.17;102299.38;10391206;28;20096;-77
2021/04/11 23:56:04;;;;;;;4.18;1.00;;;;;;;3.53;91.77;102286.13;10387714;28;20029;-79
